Time;durP1;ratioP1;P1;durP2;ratioP2;P2;SDS_P1;SDS_P2;PMS_P1;PMS_P2;Temp;Humidity;BMP_temperature;BMP_pressure;BME280_temperature;BME280_humidity;BME280_pressure;Samples;Min_cycle;Max_cycle;Signal;HPM_P1;HPM_P2
2023/09/05 00:01:38;;;;;;;33.85;6.55;;;;;;;;;;21089286;28;20048;-73
2023/09/05 00:11:39;;;;;;;34.38;6.22;;;;;;;;;;21088646;28;20084;-72
2023/09/05 00:21:40;;;;;;;32.33;5.93;;;;;;;;;;21087757;28;20086;-73
2023/09/05 00:31:41;;;;;;;30.55;6.68;;;;;;;;;;21086689;28;20044;-71
2023/09/05 00:41:42;;;;;;;38.75;7.70;;;;;;;;;;21086410;28;20039;-72
2023/09/05 00:51:49;;;;;;;37.28;6.18;;;;;;;;;;21083822;28;20055;-72
2023/09/05 01:01:50;;;;;;;32.75;6.07;;;;;;;;;;21083554;28;20065;-72
2023/09/05 01:11:51;;;;;;;29.05;6.60;;;;;;;;;;21083621;28;20370;-72
2023/09/05 01:22:15;;;;;;;32.47;6.47;;;;;;;;;;21083109;28;20055;-72
2023/09/05 01:32:17;;;;;;;33.90;6.40;;;;;;;;;;21074728;28;20071;-72
2023/09/05 01:42:18;;;;;;;30.77;7.07;;;;;;;;;;21081836;28;20403;-71
2023/09/05 01:52:20;;;;;;;38.15;7.32;;;;;;;;;;21081493;28;20063;-72
2023/09/05 02:02:21;;;;;;;39.88;8.20;;;;;;;;;;21080829;28;20073;-72
2023/09/05 02:12:22;;;;;;;37.63;7.35;;;;;;;;;;21093458;28;20401;-72
2023/09/05 02:22:24;;;;;;;32.05;7.05;;;;;;;;;;21096175;28;20040;-72
2023/09/05 02:32:25;;;;;;;35.55;7.95;;;;;;;;;;21096865;28;20044;-72
2023/09/05 02:42:26;;;;;;;26.23;6.63;;;;;;;;;;21095899;28;20044;-71
2023/09/05 02:52:29;;;;;;;33.17;7.65;;;;;;;;;;21094671;28;20088;-71
2023/09/05 03:02:30;;;;;;;26.73;5.55;;;;;;;;;;21094245;28;20489;-72
2023/09/05 03:12:31;;;;;;;19.48;6.15;;;;;;;;;;21093340;28;20495;-71
2023/09/05 03:22:32;;;;;;;25.02;4.93;;;;;;;;;;21090233;28;20109;-72
2023/09/05 03:32:33;;;;;;;25.17;6.15;;;;;;;;;;21091772;28;20044;-72
2023/09/05 03:42:34;;;;;;;28.05;5.28;;;;;;;;;;21089696;28;20048;-71
2023/09/05 03:52:35;;;;;;;27.02;5.63;;;;;;;;;;21089085;28;20143;-71
2023/09/05 04:02:36;;;;;;;28.25;6.18;;;;;;;;;;21089697;28;20424;-70
2023/09/05 04:12:38;;;;;;;32.72;6.45;;;;;;;;;;21093365;28;20040;-71
2023/09/05 04:22:39;;;;;;;31.45;6.90;;;;;;;;;;21087923;28;20504;-72
2023/09/05 04:32:42;;;;;;;30.70;6.03;;;;;;;;;;21086385;28;20040;-71
2023/09/05 04:42:43;;;;;;;30.77;6.07;;;;;;;;;;21086122;28;20048;-71
2023/09/05 04:52:45;;;;;;;20.95;5.63;;;;;;;;;;21084794;28;20066;-72
2023/09/05 05:02:46;;;;;;;28.08;5.90;;;;;;;;;;21084761;28;20056;-72
2023/09/05 05:12:47;;;;;;;21.20;6.20;;;;;;;;;;21083946;28;20508;-72
2023/09/05 05:22:48;;;;;;;18.27;5.72;;;;;;;;;;21082780;28;20067;-71
2023/09/05 05:32:49;;;;;;;27.77;5.95;;;;;;;;;;21081284;28;20129;-71
2023/09/05 05:42:50;;;;;;;26.52;5.60;;;;;;;;;;21081105;28;20070;-72
2023/09/05 05:52:52;;;;;;;22.13;6.30;;;;;;;;;;21080129;28;20055;-73
2023/09/05 06:02:55;;;;;;;27.20;6.05;;;;;;;;;;21080718;28;20110;-72
2023/09/05 06:12:56;;;;;;;22.15;6.60;;;;;;;;;;21079157;28;20105;-72
2023/09/05 06:22:57;;;;;;;26.17;6.15;;;;;;;;;;21080245;28;20115;-72
2023/09/05 06:32:59;;;;;;;18.23;5.70;;;;;;;;;;21079182;28;20128;-72
2023/09/05 06:43:00;;;;;;;20.23;6.03;;;;;;;;;;21078764;28;20036;-72
2023/09/05 06:53:01;;;;;;;27.48;7.32;;;;;;;;;;21081911;28;20136;-72
2023/09/05 07:03:02;;;;;;;31.33;7.18;;;;;;;;;;21092595;28;20097;-71
2023/09/05 07:13:03;;;;;;;36.40;7.43;;;;;;;;;;21093011;28;20125;-72
2023/09/05 07:23:05;;;;;;;33.45;7.25;;;;;;;;;;21092241;28;20111;-71
2023/09/05 07:33:06;;;;;;;32.58;7.90;;;;;;;;;;21091475;28;20406;-71
2023/09/05 07:43:07;;;;;;;35.92;8.07;;;;;;;;;;21090863;28;20071;-65
2023/09/05 07:53:09;;;;;;;32.55;7.88;;;;;;;;;;21088344;28;20059;-66
2023/09/05 08:03:10;;;;;;;36.28;7.50;;;;;;;;;;21088532;28;20552;-66
2023/09/05 08:13:13;;;;;;;30.70;6.65;;;;;;;;;;21086843;28;20040;-65
2023/09/05 08:23:14;;;;;;;32.72;6.75;;;;;;;;;;21087543;28;20413;-65
2023/09/05 08:33:15;;;;;;;25.38;6.80;;;;;;;;;;21086700;28;20047;-66
2023/09/05 08:43:17;;;;;;;25.42;5.30;;;;;;;;;;21086049;28;20505;-66
2023/09/05 08:53:19;;;;;;;31.90;6.13;;;;;;;;;;21083741;28;20051;-66
2023/09/05 09:03:20;;;;;;;30.58;6.82;;;;;;;;;;21084095;28;20074;-66
2023/09/05 09:13:23;;;;;;;24.63;5.72;;;;;;;;;;21083317;28;20051;-66
2023/09/05 09:23:28;;;;;;;11.25;3.25;;;;;;;;;;21082371;28;20486;-72
2023/09/05 09:33:31;;;;;;;10.82;3.42;;;;;;;;;;21082315;28;20170;-71
2023/09/05 09:43:33;;;;;;;15.02;3.92;;;;;;;;;;21082023;28;20055;-69
2023/09/05 09:53:39;;;;;;;18.98;4.18;;;;;;;;;;21077933;28;20440;-70
2023/09/05 10:03:41;;;;;;;20.33;3.90;;;;;;;;;;20913776;28;20037;-71
2023/09/05 10:13:43;;;;;;;13.48;3.30;;;;;;;;;;20912001;28;20094;-73
2023/09/05 10:23:44;;;;;;;15.90;3.72;;;;;;;;;;20912681;28;20406;-68
2023/09/05 10:33:46;;;;;;;14.48;3.58;;;;;;;;;;20925868;28;20124;-73
2023/09/05 10:43:57;;;;;;;15.10;3.25;;;;;;;;;;20928740;28;20142;-60
2023/09/05 10:54:18;;;;;;;14.27;3.22;;;;;;;;;;20967992;28;20100;-65
2023/09/05 11:04:20;;;;;;;12.70;3.50;;;;;;;;;;20898456;28;20058;-63
2023/09/05 11:14:31;;;;;;;15.20;2.80;;;;;;;;;;20822497;28;20048;-68
2023/09/05 11:24:32;;;;;;;10.70;2.70;;;;;;;;;;20836689;28;20045;-62
2023/09/05 13:16:25;;;;;;;17.85;5.40;;;;;;;;;;1060078;27;20703;-70
2023/09/05 13:16:57;;;;;;;14.45;5.60;;;;;;;;;;1056884;27;20151;-66
2023/09/05 13:17:29;;;;;;;25.35;6.20;;;;;;;;;;1050850;28;20082;-67
2023/09/05 13:18:00;;;;;;;17.58;5.75;;;;;;;;;;1043055;28;20515;-68
2023/09/05 13:18:32;;;;;;;16.58;4.40;;;;;;;;;;1042968;28;20369;-70
2023/09/05 13:19:03;;;;;;;11.07;4.97;;;;;;;;;;1048836;28;20507;-68
2023/09/05 13:19:34;;;;;;;14.65;4.68;;;;;;;;;;1049096;28;20461;-68
2023/09/05 13:20:06;;;;;;;24.33;5.72;;;;;;;;;;1043489;28;20037;-68
2023/09/05 13:20:37;;;;;;;15.60;5.10;;;;;;;;;;1043247;28;20736;-65
2023/09/05 13:21:09;;;;;;;13.85;4.82;;;;;;;;;;1038828;28;20122;-66
2023/09/05 13:21:40;;;;;;;19.10;4.63;;;;;;;;;;1042879;28;20091;-71
2023/09/05 13:22:12;;;;;;;17.10;4.05;;;;;;;;;;1038788;28;20083;-72
2023/09/05 13:22:47;;;;;;;17.83;3.72;;;;;;;;;;1038694;28;20084;-71
2023/09/05 13:23:19;;;;;;;15.35;4.13;;;;;;;;;;1039869;28;20506;-71
2023/09/05 13:23:50;;;;;;;18.25;3.78;;;;;;;;;;1040010;28;20420;-70
2023/09/05 13:24:21;;;;;;;17.30;3.47;;;;;;;;;;1039816;28;20065;-71
2023/09/05 13:24:52;;;;;;;17.25;4.00;;;;;;;;;;1039364;28;20053;-71
2023/09/05 13:25:24;;;;;;;16.63;4.07;;;;;;;;;;1047533;28;20033;-71
2023/09/05 13:25:55;;;;;;;17.30;3.58;;;;;;;;;;1047543;28;20032;-71
2023/09/05 13:26:29;;;;;;;19.65;3.40;;;;;;;;;;1047442;28;20043;-69
2023/09/05 13:27:00;;;;;;;14.48;4.28;;;;;;;;;;1042600;28;20029;-71
2023/09/05 13:27:32;;;;;;;15.48;4.68;;;;;;;;;;1039550;28;20073;-71
2023/09/05 13:28:06;;;;;;;18.63;3.55;;;;;;;;;;1039604;28;20079;-72
2023/09/05 13:28:37;;;;;;;14.70;3.97;;;;;;;;;;1044056;28;20049;-70
2023/09/05 13:29:08;;;;;;;21.52;2.95;;;;;;;;;;1047875;28;20106;-67
2023/09/05 13:29:39;;;;;;;15.00;3.95;;;;;;;;;;1047776;28;20039;-71
2023/09/05 13:30:11;;;;;;;21.55;4.13;;;;;;;;;;1047190;28;20490;-72
2023/09/05 13:30:43;;;;;;;17.85;3.40;;;;;;;;;;1042857;28;20507;-68
2023/09/05 13:31:14;;;;;;;15.60;3.33;;;;;;;;;;1043007;28;20072;-69
2023/09/05 13:31:45;;;;;;;21.23;3.78;;;;;;;;;;1042793;28;20033;-70
2023/09/05 13:32:17;;;;;;;10.48;3.72;;;;;;;;;;1038982;28;20117;-66
2023/09/05 13:32:48;;;;;;;19.40;4.47;;;;;;;;;;1039184;28;20045;-67
2023/09/05 13:33:19;;;;;;;16.52;3.42;;;;;;;;;;1037962;28;20030;-70
2023/09/05 13:33:50;;;;;;;15.57;3.30;;;;;;;;;;1042965;28;20428;-70
2023/09/05 13:34:21;;;;;;;18.58;3.75;;;;;;;;;;1039152;28;20559;-70
2023/09/05 13:34:53;;;;;;;14.00;3.38;;;;;;;;;;1043291;28;20124;-70
2023/09/05 13:35:25;;;;;;;18.80;3.95;;;;;;;;;;1043300;28;20106;-69
2023/09/05 13:35:56;;;;;;;17.95;4.15;;;;;;;;;;1043228;28;20452;-70
2023/09/05 13:36:27;;;;;;;21.55;4.10;;;;;;;;;;1046934;28;20040;-68
2023/09/05 13:36:58;;;;;;;17.00;3.92;;;;;;;;;;1038937;28;20044;-64
2023/09/05 13:37:30;;;;;;;14.00;3.75;;;;;;;;;;1039235;28;20033;-69
2023/09/05 13:38:01;;;;;;;16.30;3.60;;;;;;;;;;1038699;28;20535;-69
2023/09/05 13:38:32;;;;;;;11.63;3.88;;;;;;;;;;1035246;28;20121;-67
2023/09/05 13:39:03;;;;;;;18.33;3.70;;;;;;;;;;1050053;28;20491;-71
2023/09/05 13:39:34;;;;;;;14.57;3.63;;;;;;;;;;1050778;28;20411;-70
2023/09/05 13:40:06;;;;;;;22.80;4.40;;;;;;;;;;1046461;28;20496;-69
2023/09/05 13:40:37;;;;;;;13.88;3.65;;;;;;;;;;1051130;28;20077;-68
2023/09/05 13:41:08;;;;;;;19.23;3.55;;;;;;;;;;1046996;28;20033;-70
2023/09/05 13:41:39;;;;;;;14.07;3.47;;;;;;;;;;1038600;28;20040;-68
2023/09/05 13:42:11;;;;;;;16.90;3.55;;;;;;;;;;1034970;28;20559;-63
2023/09/05 13:42:43;;;;;;;14.18;4.00;;;;;;;;;;1039204;28;20044;-66
2023/09/05 13:43:15;;;;;;;15.77;3.97;;;;;;;;;;1039615;28;20120;-64
2023/09/05 13:43:46;;;;;;;16.63;3.45;;;;;;;;;;1039434;28;20127;-64
2023/09/05 13:44:17;;;;;;;10.27;3.42;;;;;;;;;;1039127;28;20064;-63
2023/09/05 13:44:49;;;;;;;20.25;3.58;;;;;;;;;;1038843;28;21091;-66
2023/09/05 13:45:20;;;;;;;15.27;3.13;;;;;;;;;;1043078;28;20056;-64
2023/09/05 13:45:51;;;;;;;11.80;3.33;;;;;;;;;;1043058;28;20044;-64
2023/09/05 13:46:22;;;;;;;18.00;3.58;;;;;;;;;;1043093;28;20044;-66
2023/09/05 13:46:54;;;;;;;17.70;3.67;;;;;;;;;;1042973;28;20091;-66
2023/09/05 13:47:26;;;;;;;21.48;3.97;;;;;;;;;;1047332;28;20031;-61
2023/09/05 13:47:59;;;;;;;13.10;3.15;;;;;;;;;;1047502;28;20059;-64
2023/09/05 13:48:40;;;;;;;17.27;3.58;;;;;;;;;;1046882;28;20033;-62
2023/09/05 13:49:12;;;;;;;16.08;3.47;;;;;;;;;;1042703;28;20092;-62
2023/09/05 13:49:43;;;;;;;23.30;4.05;;;;;;;;;;1040842;28;20022;-62
2023/09/05 13:50:20;;;;;;;21.08;3.95;;;;;;;;;;1035945;28;20519;-62
2023/09/05 13:50:51;;;;;;;15.02;3.70;;;;;;;;;;1039911;28;20067;-62
2023/09/05 13:51:23;;;;;;;13.90;3.33;;;;;;;;;;1045490;28;20052;-64
2023/09/05 13:51:54;;;;;;;17.20;3.50;;;;;;;;;;1046595;28;20499;-69
2023/09/05 13:52:25;;;;;;;18.05;3.42;;;;;;;;;;1039371;28;20043;-68
2023/09/05 13:52:56;;;;;;;18.63;4.10;;;;;;;;;;1037760;28;20116;-63
2023/09/05 13:53:27;;;;;;;15.80;3.35;;;;;;;;;;1032186;28;20039;-67
2023/09/05 13:53:59;;;;;;;15.88;3.63;;;;;;;;;;1033411;28;20070;-67
2023/09/05 13:54:30;;;;;;;22.77;4.70;;;;;;;;;;1038954;28;20042;-67
2023/09/05 13:55:02;;;;;;;18.33;3.40;;;;;;;;;;1037031;28;20096;-65
2023/09/05 13:55:33;;;;;;;18.58;3.72;;;;;;;;;;1043281;28;20356;-65
2023/09/05 13:56:05;;;;;;;16.27;4.32;;;;;;;;;;1043078;28;20063;-65
2023/09/05 13:56:36;;;;;;;12.43;3.13;;;;;;;;;;1042758;28;20033;-66
2023/09/05 13:57:08;;;;;;;17.80;3.53;;;;;;;;;;1039209;28;20060;-65
2023/09/05 13:57:39;;;;;;;15.32;3.22;;;;;;;;;;1035983;28;20315;-63
2023/09/05 13:58:10;;;;;;;14.48;3.60;;;;;;;;;;1038327;28;20041;-66
2023/09/05 13:58:41;;;;;;;14.10;3.28;;;;;;;;;;1038434;28;20044;-66
2023/09/05 13:59:13;;;;;;;17.92;4.70;;;;;;;;;;1037053;28;20034;-66
2023/09/05 13:59:44;;;;;;;13.05;3.55;;;;;;;;;;1036301;28;20192;-65
2023/09/05 14:00:20;;;;;;;18.85;3.72;;;;;;;;;;1037781;28;20044;-64
2023/09/05 14:00:51;;;;;;;19.65;3.90;;;;;;;;;;1036048;28;20113;-68
2023/09/05 14:01:22;;;;;;;14.52;3.30;;;;;;;;;;1035539;28;20040;-66
2023/09/05 14:01:54;;;;;;;11.50;3.22;;;;;;;;;;1036242;28;20164;-65
2023/09/05 14:02:25;;;;;;;21.55;3.83;;;;;;;;;;1039314;28;20030;-66
2023/09/05 14:02:56;;;;;;;13.38;3.20;;;;;;;;;;1042120;28;20520;-65
2023/09/05 14:03:29;;;;;;;16.33;4.03;;;;;;;;;;1046701;28;20542;-64
2023/09/05 14:04:01;;;;;;;18.48;3.72;;;;;;;;;;1045939;28;20025;-66
2023/09/05 14:04:32;;;;;;;14.40;4.10;;;;;;;;;;1046003;28;20159;-64
2023/09/05 14:05:04;;;;;;;19.50;3.80;;;;;;;;;;1043388;28;20523;-64
2023/09/05 14:05:35;;;;;;;16.02;4.30;;;;;;;;;;1042574;28;20132;-64
2023/09/05 14:06:07;;;;;;;19.58;3.60;;;;;;;;;;1042056;28;20087;-63
2023/09/05 14:06:40;;;;;;;22.17;4.22;;;;;;;;;;1042595;28;20037;-64
2023/09/05 14:07:11;;;;;;;20.38;4.25;;;;;;;;;;1045407;28;20115;-64
2023/09/05 14:07:42;;;;;;;17.98;3.55;;;;;;;;;;1042640;28;20029;-64
2023/09/05 14:08:13;;;;;;;15.07;3.58;;;;;;;;;;1037108;28;20523;-65
2023/09/05 14:08:44;;;;;;;16.05;3.60;;;;;;;;;;1030246;28;60225;-64
2023/09/05 14:09:16;;;;;;;22.00;3.65;;;;;;;;;;1032828;28;53400;-63
2023/09/05 14:09:47;;;;;;;13.45;3.25;;;;;;;;;;1034358;28;20042;-62
2023/09/05 14:10:18;;;;;;;17.20;3.45;;;;;;;;;;1032487;28;20097;-64
2023/09/05 14:10:50;;;;;;;13.55;3.33;;;;;;;;;;1034640;28;20044;-62
2023/09/05 14:11:21;;;;;;;18.08;3.58;;;;;;;;;;1042021;28;20164;-61
2023/09/05 14:11:52;;;;;;;20.08;3.40;;;;;;;;;;1038715;28;20041;-62
2023/09/05 14:12:23;;;;;;;22.83;3.70;;;;;;;;;;1034520;28;20038;-62
2023/09/05 14:12:55;;;;;;;11.98;3.38;;;;;;;;;;1034945;28;20030;-63
2023/09/05 14:13:26;;;;;;;15.82;3.35;;;;;;;;;;1032960;28;20031;-64
2023/09/05 14:13:57;;;;;;;15.68;3.90;;;;;;;;;;1038079;28;20075;-64
2023/09/05 14:14:28;;;;;;;16.95;4.07;;;;;;;;;;1043374;28;20484;-63
2023/09/05 14:15:01;;;;;;;15.98;3.47;;;;;;;;;;1034383;28;20545;-63
2023/09/05 14:15:32;;;;;;;12.85;3.30;;;;;;;;;;1045739;28;20483;-64
2023/09/05 14:16:03;;;;;;;17.77;4.38;;;;;;;;;;1043142;28;20836;-63
2023/09/05 14:16:34;;;;;;;17.55;3.72;;;;;;;;;;1035403;28;20030;-63
2023/09/05 14:17:06;;;;;;;12.80;3.72;;;;;;;;;;1033677;28;20108;-62
2023/09/05 14:17:37;;;;;;;14.70;3.45;;;;;;;;;;1034373;28;20141;-64
2023/09/05 14:18:08;;;;;;;13.32;3.63;;;;;;;;;;1038776;28;20072;-64
2023/09/05 14:18:39;;;;;;;18.23;3.72;;;;;;;;;;1043102;28;20562;-65
2023/09/05 14:19:11;;;;;;;18.20;3.47;;;;;;;;;;1046198;28;20033;-65
2023/09/05 14:19:42;;;;;;;15.23;3.90;;;;;;;;;;1045420;28;20035;-63
2023/09/05 14:20:13;;;;;;;15.98;4.05;;;;;;;;;;1041533;28;20033;-64
2023/09/05 14:20:44;;;;;;;17.83;3.40;;;;;;;;;;1036461;28;20083;-65
2023/09/05 14:21:15;;;;;;;17.55;3.03;;;;;;;;;;1034021;28;20042;-65
2023/09/05 14:21:46;;;;;;;17.05;3.95;;;;;;;;;;1034945;28;20121;-65
2023/09/05 14:22:17;;;;;;;15.40;3.78;;;;;;;;;;1034728;28;20035;-65
2023/09/05 14:22:49;;;;;;;18.55;3.20;;;;;;;;;;1038968;28;20539;-65
2023/09/05 14:23:20;;;;;;;16.40;3.13;;;;;;;;;;1042300;28;20037;-64
2023/09/05 14:23:51;;;;;;;14.25;3.80;;;;;;;;;;1045783;28;20033;-65
2023/09/05 14:24:22;;;;;;;15.32;3.13;;;;;;;;;;1036761;28;20507;-65
2023/09/05 14:24:54;;;;;;;17.90;3.30;;;;;;;;;;1034800;28;20672;-64
2023/09/05 14:25:25;;;;;;;15.07;3.30;;;;;;;;;;1037971;28;20524;-65
2023/09/05 14:25:57;;;;;;;13.65;3.33;;;;;;;;;;1030385;28;20062;-63
2023/09/05 14:26:30;;;;;;;14.15;3.67;;;;;;;;;;1034306;28;20034;-63
2023/09/05 14:27:02;;;;;;;18.70;3.95;;;;;;;;;;1033581;28;20505;-63
2023/09/05 14:27:33;;;;;;;13.75;3.33;;;;;;;;;;1025902;28;20613;-63
2023/09/05 14:28:05;;;;;;;15.85;3.60;;;;;;;;;;1027036;28;20098;-63
2023/09/05 14:28:36;;;;;;;11.07;3.28;;;;;;;;;;1028182;28;20031;-63
2023/09/05 14:29:08;;;;;;;19.15;3.80;;;;;;;;;;1037389;28;20030;-63
2023/09/05 14:29:41;;;;;;;17.52;3.60;;;;;;;;;;1034125;28;20030;-63
2023/09/05 14:30:13;;;;;;;16.80;3.17;;;;;;;;;;1031135;28;20161;-63
2023/09/05 14:30:44;;;;;;;14.30;3.15;;;;;;;;;;1023795;29;20606;-63
2023/09/05 14:31:15;;;;;;;14.95;3.25;;;;;;;;;;1035806;28;20046;-62
2023/09/05 14:31:46;;;;;;;17.80;3.00;;;;;;;;;;1035808;28;20053;-62
2023/09/05 14:32:17;;;;;;;20.23;3.88;;;;;;;;;;1039609;28;20635;-63
2023/09/05 14:32:49;;;;;;;14.95;2.70;;;;;;;;;;1027593;28;20035;-63
2023/09/05 14:33:20;;;;;;;12.93;3.15;;;;;;;;;;1032179;28;20447;-63
2023/09/05 14:33:51;;;;;;;18.58;3.40;;;;;;;;;;1035794;28;20049;-62
2023/09/05 14:34:22;;;;;;;15.73;3.65;;;;;;;;;;1030386;28;20054;-62
2023/09/05 14:34:54;;;;;;;13.93;2.85;;;;;;;;;;1035328;28;20077;-62
2023/09/05 14:35:25;;;;;;;15.63;3.17;;;;;;;;;;1038843;28;20037;-64
2023/09/05 14:35:59;;;;;;;12.60;3.28;;;;;;;;;;1036378;28;20417;-63
2023/09/05 14:36:30;;;;;;;15.27;3.55;;;;;;;;;;1039480;28;20045;-63
2023/09/05 14:37:01;;;;;;;25.25;4.30;;;;;;;;;;1038438;28;20049;-63
2023/09/05 14:38:09;;;;;;;14.65;3.53;;;;;;;;;;1033227;27;20396;-68
2023/09/05 14:39:12;;;;;;;;;;;;;;;;;;1058472;27;20348;-62
2023/09/05 14:39:45;;;;;;;15.82;3.67;;;;;;;;;;1052540;28;20337;-64
2023/09/05 14:40:17;;;;;;;12.57;3.58;;;;;;;;;;1043981;28;20427;-63
2023/09/05 14:40:49;;;;;;;12.95;3.28;;;;;;;;;;1038310;28;20120;-63
2023/09/05 14:41:30;;;;;;;17.85;3.65;;;;;;;;;;1037458;28;20034;-62
2023/09/05 14:42:01;;;;;;;19.55;4.07;;;;;;;;;;1038825;28;20516;-61
2023/09/05 14:42:33;;;;;;;17.38;3.38;;;;;;;;;;1038866;28;20034;-61
2023/09/05 14:43:05;;;;;;;16.90;4.10;;;;;;;;;;1039622;28;20037;-61
2023/09/05 14:43:36;;;;;;;16.33;4.00;;;;;;;;;;1035123;28;20398;-61
2023/09/05 14:44:10;;;;;;;11.05;3.70;;;;;;;;;;1035870;28;20038;-61
2023/09/05 14:44:41;;;;;;;20.23;3.92;;;;;;;;;;1039486;28;20030;-62
2023/09/05 14:45:12;;;;;;;15.85;3.58;;;;;;;;;;1040140;28;20088;-62
2023/09/05 14:45:44;;;;;;;13.40;3.20;;;;;;;;;;1046679;28;20490;-62
2023/09/05 14:46:15;;;;;;;14.27;3.58;;;;;;;;;;1043339;28;20515;-62
2023/09/05 14:46:46;;;;;;;11.38;3.20;;;;;;;;;;1043302;28;20067;-60
2023/09/05 14:47:17;;;;;;;13.30;2.92;;;;;;;;;;1042992;28;20063;-60
2023/09/05 14:47:52;;;;;;;10.23;3.10;;;;;;;;;;1046361;28;20032;-60
2023/09/05 14:48:24;;;;;;;17.48;3.78;;;;;;;;;;1038700;28;20034;-60
2023/09/05 14:48:56;;;;;;;17.98;4.20;;;;;;;;;;1038661;28;20037;-59
2023/09/05 14:49:27;;;;;;;14.35;3.03;;;;;;;;;;1042068;28;20073;-61
2023/09/05 14:49:59;;;;;;;10.90;2.63;;;;;;;;;;1043122;28;20033;-60
2023/09/05 14:50:31;;;;;;;12.32;3.63;;;;;;;;;;1039012;28;20544;-60
2023/09/05 14:51:04;;;;;;;20.65;3.30;;;;;;;;;;1034876;28;20061;-61
2023/09/05 14:51:36;;;;;;;18.50;4.32;;;;;;;;;;1038777;28;20124;-62
2023/09/05 14:52:07;;;;;;;16.73;3.85;;;;;;;;;;1039117;28;21778;-60
2023/09/05 14:52:38;;;;;;;14.93;2.90;;;;;;;;;;1040133;28;20053;-60
2023/09/05 14:53:09;;;;;;;10.77;3.42;;;;;;;;;;1044287;28;20043;-60
2023/09/05 14:53:41;;;;;;;17.40;3.72;;;;;;;;;;1044952;28;20041;-62
2023/09/05 14:54:13;;;;;;;19.73;3.80;;;;;;;;;;1045173;28;20037;-60
2023/09/05 14:54:44;;;;;;;14.45;3.17;;;;;;;;;;1043562;28;20033;-60
2023/09/05 14:55:16;;;;;;;21.00;3.53;;;;;;;;;;1047165;28;20037;-61
2023/09/05 14:55:47;;;;;;;20.25;3.50;;;;;;;;;;1043183;28;20499;-61
2023/09/05 14:56:18;;;;;;;19.25;3.45;;;;;;;;;;1043509;28;20095;-59
2023/09/05 14:56:50;;;;;;;10.80;2.63;;;;;;;;;;1039366;28;20063;-60
2023/09/05 14:57:21;;;;;;;14.85;3.72;;;;;;;;;;1042389;28;20032;-60
2023/09/05 14:57:52;;;;;;;15.20;3.17;;;;;;;;;;1035269;28;20054;-60
2023/09/05 14:58:23;;;;;;;15.13;3.40;;;;;;;;;;1036599;28;20037;-60
2023/09/05 14:58:55;;;;;;;17.58;3.78;;;;;;;;;;1039125;28;20421;-60
2023/09/05 14:59:26;;;;;;;9.52;3.15;;;;;;;;;;1035525;28;20042;-61
2023/09/05 14:59:57;;;;;;;15.40;3.40;;;;;;;;;;1043089;28;20041;-61
2023/09/05 15:00:28;;;;;;;12.23;2.92;;;;;;;;;;1039148;28;20026;-61
2023/09/05 15:00:59;;;;;;;13.23;3.63;;;;;;;;;;1042621;28;20041;-60
2023/09/05 15:01:31;;;;;;;12.70;3.20;;;;;;;;;;1042966;28;20040;-63
2023/09/05 15:02:02;;;;;;;13.65;3.67;;;;;;;;;;1043432;28;20074;-60
2023/09/05 15:02:33;;;;;;;17.33;3.65;;;;;;;;;;1047025;28;20036;-61
2023/09/05 15:03:05;;;;;;;20.38;4.05;;;;;;;;;;1049318;28;20043;-63
2023/09/05 15:03:36;;;;;;;18.70;3.45;;;;;;;;;;1047441;28;20663;-61
2023/09/05 15:04:08;;;;;;;16.00;3.55;;;;;;;;;;1043110;28;20037;-60
2023/09/05 15:04:39;;;;;;;12.18;3.28;;;;;;;;;;1043716;28;20183;-59
2023/09/05 15:05:10;;;;;;;14.45;3.97;;;;;;;;;;1048048;28;20028;-60
2023/09/05 15:05:42;;;;;;;13.48;2.78;;;;;;;;;;1051338;28;20039;-60
2023/09/05 15:06:13;;;;;;;22.10;3.25;;;;;;;;;;1051422;28;20068;-60
2023/09/05 15:06:44;;;;;;;14.50;3.15;;;;;;;;;;1051835;28;20444;-59
2023/09/05 15:07:15;;;;;;;21.70;3.72;;;;;;;;;;1048501;28;20047;-60
2023/09/05 15:07:49;;;;;;;13.15;3.05;;;;;;;;;;1046454;28;20037;-61
2023/09/05 15:08:20;;;;;;;17.42;3.67;;;;;;;;;;1048090;28;20028;-60
2023/09/05 15:08:51;;;;;;;14.27;3.67;;;;;;;;;;1047231;28;20121;-60
2023/09/05 15:09:23;;;;;;;15.32;3.33;;;;;;;;;;1039825;28;20465;-59
2023/09/05 15:09:54;;;;;;;17.25;3.28;;;;;;;;;;1043888;28;20462;-60
2023/09/05 15:10:25;;;;;;;13.50;2.70;;;;;;;;;;1043409;28;20032;-60
2023/09/05 15:10:56;;;;;;;13.52;3.08;;;;;;;;;;1043061;28;20041;-62
2023/09/05 15:11:27;;;;;;;10.85;3.00;;;;;;;;;;1039369;28;20038;-60
2023/09/05 15:11:58;;;;;;;13.65;3.60;;;;;;;;;;1038507;28;20034;-59
2023/09/05 15:12:30;;;;;;;12.27;3.13;;;;;;;;;;1039651;28;20045;-59
2023/09/05 15:13:01;;;;;;;13.98;3.22;;;;;;;;;;1043135;28;20511;-60
2023/09/05 15:13:32;;;;;;;18.42;3.63;;;;;;;;;;1039396;28;20048;-59
2023/09/05 15:14:03;;;;;;;19.50;3.70;;;;;;;;;;1035583;28;20074;-60
2023/09/05 15:14:38;;;;;;;14.80;3.42;;;;;;;;;;1039254;28;20087;-60
2023/09/05 15:15:09;;;;;;;15.48;2.97;;;;;;;;;;1039751;28;20121;-61
2023/09/05 15:15:40;;;;;;;13.23;3.00;;;;;;;;;;1040619;28;20034;-60
2023/09/05 15:16:12;;;;;;;18.20;3.50;;;;;;;;;;1044998;28;20063;-60
2023/09/05 15:16:44;;;;;;;15.35;3.20;;;;;;;;;;1046830;28;20567;-60
2023/09/05 15:17:15;;;;;;;17.90;3.75;;;;;;;;;;1047793;28;20037;-60
2023/09/05 15:17:46;;;;;;;15.15;3.40;;;;;;;;;;1043551;28;20148;-63
2023/09/05 15:18:18;;;;;;;12.35;2.95;;;;;;;;;;1047703;28;20032;-61
2023/09/05 15:18:49;;;;;;;20.15;3.22;;;;;;;;;;1047349;28;20037;-60
2023/09/05 15:19:21;;;;;;;18.95;3.00;;;;;;;;;;1047500;28;20071;-60
2023/09/05 15:19:52;;;;;;;16.30;4.10;;;;;;;;;;1043667;28;20487;-59
2023/09/05 15:20:23;;;;;;;15.05;3.75;;;;;;;;;;1043576;28;20654;-60
2023/09/05 15:20:55;;;;;;;15.48;2.97;;;;;;;;;;1038658;28;20033;-63
2023/09/05 15:21:26;;;;;;;15.95;3.10;;;;;;;;;;1042892;28;20107;-59
2023/09/05 15:21:57;;;;;;;20.60;4.13;;;;;;;;;;1043559;28;20539;-61
2023/09/05 15:22:28;;;;;;;17.70;3.95;;;;;;;;;;1043858;28;20388;-60
2023/09/05 15:22:59;;;;;;;16.25;3.70;;;;;;;;;;1042959;28;20073;-60
2023/09/05 15:23:31;;;;;;;16.55;3.90;;;;;;;;;;1039392;28;20030;-59
2023/09/05 15:24:05;;;;;;;14.27;3.75;;;;;;;;;;1035285;28;20437;-60
2023/09/05 15:24:37;;;;;;;19.15;4.15;;;;;;;;;;1039753;28;20042;-60
2023/09/05 15:25:12;;;;;;;18.25;4.50;;;;;;;;;;1042982;28;20485;-61
2023/09/05 15:25:43;;;;;;;18.65;3.72;;;;;;;;;;1044165;28;20041;-59
2023/09/05 15:26:15;;;;;;;19.38;3.70;;;;;;;;;;1052303;28;20040;-59
2023/09/05 15:26:46;;;;;;;19.42;3.15;;;;;;;;;;1052453;28;20082;-59
2023/09/05 15:27:17;;;;;;;18.13;3.58;;;;;;;;;;1047243;28;20163;-60
2023/09/05 15:27:48;;;;;;;15.95;3.10;;;;;;;;;;1043046;28;20037;-60
2023/09/05 15:28:20;;;;;;;19.17;3.45;;;;;;;;;;1043487;28;20040;-59
2023/09/05 15:28:51;;;;;;;19.40;3.22;;;;;;;;;;1043619;28;20044;-60
2023/09/05 15:29:22;;;;;;;14.13;3.40;;;;;;;;;;1047003;28;20033;-59
2023/09/05 15:29:53;;;;;;;17.15;3.25;;;;;;;;;;1039162;28;20033;-59
2023/09/05 15:30:24;;;;;;;18.33;3.10;;;;;;;;;;1038384;28;20037;-59
2023/09/05 15:30:55;;;;;;;16.55;3.47;;;;;;;;;;1042984;28;20518;-59
2023/09/05 15:31:26;;;;;;;14.85;3.83;;;;;;;;;;1043126;28;20041;-59
2023/09/05 15:31:57;;;;;;;18.52;3.38;;;;;;;;;;1034827;28;20657;-63
2023/09/05 15:32:29;;;;;;;14.55;3.65;;;;;;;;;;1038847;28;20033;-61
2023/09/05 15:33:00;;;;;;;15.07;3.33;;;;;;;;;;1042665;28;20030;-60
2023/09/05 15:33:32;;;;;;;16.50;3.65;;;;;;;;;;1042617;28;20037;-59
2023/09/05 15:34:05;;;;;;;16.20;3.38;;;;;;;;;;1039261;28;20069;-59
2023/09/05 15:34:36;;;;;;;16.02;3.55;;;;;;;;;;1035629;28;20575;-60
2023/09/05 15:35:08;;;;;;;16.63;3.60;;;;;;;;;;1038804;28;20045;-59
2023/09/05 15:35:39;;;;;;;21.58;3.45;;;;;;;;;;1042959;28;20048;-60
2023/09/05 15:36:10;;;;;;;20.63;3.65;;;;;;;;;;1038747;28;20038;-60
2023/09/05 15:36:42;;;;;;;12.57;2.85;;;;;;;;;;1035303;28;20417;-59
2023/09/05 15:37:13;;;;;;;17.40;3.70;;;;;;;;;;1035286;28;20477;-59
2023/09/05 15:37:44;;;;;;;22.13;4.30;;;;;;;;;;1035275;28;20506;-60
2023/09/05 15:38:15;;;;;;;12.63;3.40;;;;;;;;;;1035274;28;20440;-59
2023/09/05 15:38:47;;;;;;;12.45;4.07;;;;;;;;;;1034782;28;20453;-60
2023/09/05 15:39:18;;;;;;;13.10;3.30;;;;;;;;;;1034779;28;20470;-59
2023/09/05 15:39:49;;;;;;;20.70;4.18;;;;;;;;;;1035075;28;20112;-63
2023/09/05 15:40:21;;;;;;;17.13;3.35;;;;;;;;;;1035052;28;20049;-61
2023/09/05 15:40:52;;;;;;;14.93;3.17;;;;;;;;;;1038987;28;20477;-59
2023/09/05 15:41:24;;;;;;;15.70;3.65;;;;;;;;;;1039864;28;20045;-59
2023/09/05 15:41:56;;;;;;;22.73;3.60;;;;;;;;;;1039438;28;20041;-59
2023/09/05 15:42:27;;;;;;;18.02;3.53;;;;;;;;;;1038984;28;20464;-60
2023/09/05 15:42:59;;;;;;;18.23;3.30;;;;;;;;;;1034772;28;20049;-62
2023/09/05 15:43:30;;;;;;;10.70;3.13;;;;;;;;;;1036793;28;20116;-59
2023/09/05 15:44:02;;;;;;;17.00;4.10;;;;;;;;;;1037992;28;20044;-59
2023/09/05 15:44:33;;;;;;;22.10;4.18;;;;;;;;;;1039155;28;20121;-60
2023/09/05 15:45:08;;;;;;;23.55;3.53;;;;;;;;;;1039424;28;20049;-60
2023/09/05 15:45:46;;;;;;;21.48;4.03;;;;;;;;;;1035803;28;20597;-60
2023/09/05 15:46:18;;;;;;;17.60;3.50;;;;;;;;;;1036674;28;20048;-59
2023/09/05 15:46:49;;;;;;;18.45;3.88;;;;;;;;;;1036752;28;20046;-61
2023/09/05 15:47:20;;;;;;;18.95;3.28;;;;;;;;;;1037525;28;20579;-60